Time;durP1;ratioP1;P1;durP2;ratioP2;P2;SDS_P1;SDS_P2;PMS_P1;PMS_P2;Temp;Humidity;BMP_temperature;BMP_pressure;BME280_temperature;BME280_humidity;BME280_pressure;Samples;Min_cycle;Max_cycle;Signal;HPM_P1;HPM_P2
2023/08/27 00:01:46;;;;;;;6.70;5.30;;;;;;;24.45;57.96;96877.88;5109564;28;20190;-84
2023/08/27 00:04:14;;;;;;;5.83;5.03;;;;;;;24.64;58.13;96881.09;5108351;28;20215;-84
2023/08/27 00:06:41;;;;;;;5.37;4.87;;;;;;;24.65;58.39;96880.09;5109583;28;20190;-88
2023/08/27 00:09:08;;;;;;;6.30;4.73;;;;;;;24.34;59.32;96875.53;5108326;28;20279;-86
2023/08/27 00:11:36;;;;;;;5.30;4.80;;;;;;;24.24;59.47;96855.28;5109540;28;20190;-80
2023/08/27 00:14:03;;;;;;;6.47;5.30;;;;;;;24.30;58.71;96872.34;5075222;28;20653;-84
2023/08/27 00:16:30;;;;;;;6.20;5.23;;;;;;;24.12;59.67;96883.03;5082049;28;20213;-79
2023/08/27 00:18:58;;;;;;;5.33;4.80;;;;;;;23.32;62.13;96870.06;5088292;28;20203;-80
2023/08/27 00:21:25;;;;;;;8.00;4.60;;;;;;;23.13;62.52;96874.63;5069402;28;20822;-78
2023/08/27 00:23:52;;;;;;;6.07;5.03;;;;;;;22.82;62.83;96873.31;5088250;28;20198;-82
2023/08/27 00:26:19;;;;;;;7.17;5.10;;;;;;;23.00;62.09;96869.72;5086674;28;20664;-82
2023/08/27 00:28:47;;;;;;;6.87;4.80;;;;;;;22.92;61.93;96863.50;5088229;28;20915;-84
2023/08/27 00:31:14;;;;;;;6.57;5.40;;;;;;;23.08;61.69;96877.72;5068726;28;20245;-87
2023/08/27 00:33:47;;;;;;;7.23;5.37;;;;;;;23.25;61.55;96878.69;5070209;28;20185;-73
2023/08/27 00:36:14;;;;;;;7.30;4.90;;;;;;;23.48;60.58;96887.00;5088081;28;20189;-81
2023/08/27 00:38:41;;;;;;;6.17;5.13;;;;;;;23.81;59.83;96881.81;5086858;28;20189;-72
2023/08/27 00:41:10;;;;;;;6.77;5.50;;;;;;;23.87;59.54;96864.47;5069849;28;20259;-72
2023/08/27 00:43:37;;;;;;;7.90;5.20;;;;;;;23.72;59.78;96861.56;5086792;28;20202;-84
2023/08/27 00:46:06;;;;;;;7.53;5.10;;;;;;;23.81;59.63;96862.47;5069833;28;20926;-77
2023/08/27 00:48:34;;;;;;;7.63;5.43;;;;;;;23.87;59.08;96869.78;5068983;28;20210;-81
2023/08/27 00:51:03;;;;;;;8.67;5.47;;;;;;;24.11;58.58;96868.13;5088007;28;20180;-84
2023/08/27 00:53:30;;;;;;;7.23;5.10;;;;;;;24.23;58.53;96866.84;5087968;28;20691;-87
2023/08/27 00:55:57;;;;;;;7.60;5.27;;;;;;;24.27;58.43;96855.97;5087235;28;20691;-81
2023/08/27 00:58:25;;;;;;;5.73;5.13;;;;;;;24.44;57.44;96849.75;5088318;28;20184;-82
2023/08/27 01:00:53;;;;;;;6.93;4.87;;;;;;;24.25;58.37;96827.81;5034962;28;20251;-84
2023/08/27 01:03:22;;;;;;;7.47;5.33;;;;;;;24.25;59.14;96854.28;5053998;28;20193;-82
2023/08/27 01:05:50;;;;;;;6.47;5.27;;;;;;;24.25;58.70;96846.34;5069036;28;20213;-86
2023/08/27 01:08:38;;;;;;;7.23;5.10;;;;;;;24.25;59.07;96850.84;5087741;28;20195;-83
2023/08/27 01:11:29;;;;;;;6.70;5.40;;;;;;;23.93;59.32;96848.81;5069854;28;20677;-84
2023/08/27 01:14:00;;;;;;;8.03;5.57;;;;;;;24.10;58.97;96845.31;5086760;28;20231;-81
2023/08/27 01:16:28;;;;;;;7.30;5.77;;;;;;;24.13;58.47;96838.88;5087789;28;20596;-86
2023/08/27 01:18:59;;;;;;;8.23;5.70;;;;;;;23.84;59.14;96828.63;5068737;28;20650;-86
2023/08/27 01:21:27;;;;;;;6.63;5.50;;;;;;;23.63;60.76;96827.31;5069114;28;20186;-77
2023/08/27 01:23:56;;;;;;;6.77;5.67;;;;;;;23.22;61.55;96826.16;5069435;28;20737;-87
2023/08/27 01:26:35;;;;;;;6.80;6.07;;;;;;;23.04;62.39;96828.00;5051809;28;20197;-80
2023/08/27 01:29:29;;;;;;;6.60;6.00;;;;;;;23.29;61.81;96833.31;5069958;28;20240;-80
2023/08/27 01:32:19;;;;;;;7.50;5.67;;;;;;;23.50;61.59;96840.94;5086511;28;20195;-74
2023/08/27 01:34:48;;;;;;;10.37;5.70;;;;;;;23.23;62.01;96830.44;5055111;28;20212;-87
2023/08/27 01:37:17;;;;;;;6.47;5.73;;;;;;;23.03;62.64;96826.31;5087428;28;20197;-81
2023/08/27 01:39:44;;;;;;;5.90;5.30;;;;;;;22.99;63.04;96824.97;5067871;28;20233;-82
2023/08/27 01:42:12;;;;;;;6.83;5.30;;;;;;;23.32;61.74;96816.34;5087960;28;20603;-83
2023/08/27 01:44:40;;;;;;;8.23;5.93;;;;;;;23.57;61.78;96820.84;5051623;28;20582;-75
2023/08/27 01:47:07;;;;;;;8.67;5.67;;;;;;;23.68;61.45;96803.88;5087114;28;20285;-83
2023/08/27 01:49:36;;;;;;;8.33;5.60;;;;;;;23.97;60.27;96813.13;5069288;28;20885;-81
2023/08/27 01:52:03;;;;;;;7.40;5.77;;;;;;;23.97;59.77;96804.34;5068162;28;20695;-78
2023/08/27 01:54:34;;;;;;;7.93;5.77;;;;;;;23.68;60.95;96806.53;5069553;28;20581;-83
2023/08/27 01:57:03;;;;;;;7.17;5.70;;;;;;;23.76;60.91;96823.25;5067972;28;20622;-76
2023/08/27 01:59:30;;;;;;;8.20;5.73;;;;;;;23.45;62.60;96811.50;5069315;28;20645;-74
2023/08/27 02:01:57;;;;;;;11.10;6.27;;;;;;;23.61;62.76;96822.19;5068376;28;20193;-76
2023/08/27 02:04:24;;;;;;;8.20;6.20;;;;;;;23.74;62.49;96817.28;5068843;28;20286;-76
2023/08/27 02:06:51;;;;;;;8.37;5.80;;;;;;;23.94;61.06;96812.63;5086994;28;20198;-81
2023/08/27 02:09:18;;;;;;;7.83;5.80;;;;;;;23.95;61.70;96822.19;5068281;28;20618;-80
2023/08/27 02:11:46;;;;;;;6.40;5.60;;;;;;;23.93;61.96;96819.72;5087398;28;20289;-81
2023/08/27 02:14:13;;;;;;;6.30;5.70;;;;;;;23.98;61.41;96817.44;5089999;28;20243;-78
2023/08/27 02:16:41;;;;;;;7.20;5.70;;;;;;;23.88;61.47;96806.16;5073262;28;20198;-78
2023/08/27 02:19:09;;;;;;;6.30;5.70;;;;;;;23.88;62.06;96808.78;5089996;28;20199;-85
2023/08/27 02:21:36;;;;;;;9.67;6.13;;;;;;;23.25;63.30;96789.69;5073013;28;20182;-80
2023/08/27 02:24:04;;;;;;;7.20;5.00;;;;;;;23.34;62.57;96811.75;5072597;28;20216;-85
2023/08/27 02:26:31;;;;;;;9.37;5.80;;;;;;;23.16;63.07;96810.91;5090179;28;20193;-78
2023/08/27 02:28:59;;;;;;;8.77;5.83;;;;;;;22.35;65.33;96807.47;5056350;28;20186;-79
2023/08/27 02:31:26;;;;;;;8.17;5.33;;;;;;;22.05;66.71;96806.94;5089832;28;20194;-86
2023/08/27 02:33:54;;;;;;;8.20;6.07;;;;;;;22.33;66.16;96804.16;5072732;28;20197;-85
2023/08/27 02:36:21;;;;;;;9.90;6.63;;;;;;;22.23;66.06;96806.00;5089868;28;20206;-85
2023/08/27 02:38:48;;;;;;;6.40;5.67;;;;;;;22.22;66.15;96806.97;5072837;28;20177;-84
2023/08/27 02:41:15;;;;;;;8.03;6.00;;;;;;;22.06;66.61;96809.44;5073026;28;20237;-80
2023/08/27 02:43:43;;;;;;;8.53;7.20;;;;;;;22.15;66.00;96811.19;5072703;28;20186;-83
2023/08/27 02:46:10;;;;;;;7.83;6.37;;;;;;;21.85;67.87;96807.03;5096263;28;20194;-80
2023/08/27 02:48:37;;;;;;;6.93;6.07;;;;;;;21.95;67.39;96808.81;5099493;28;20187;-87
2023/08/27 02:51:04;;;;;;;9.53;6.63;;;;;;;21.75;68.46;96816.75;5097056;28;20309;-78
2023/08/27 02:53:32;;;;;;;6.83;6.00;;;;;;;21.62;69.26;96805.69;5074907;28;20287;-78
2023/08/27 02:55:59;;;;;;;10.20;6.70;;;;;;;21.49;69.79;96805.19;5055938;28;20217;-74
2023/08/27 02:58:26;;;;;;;6.93;6.00;;;;;;;21.46;70.19;96809.88;5071706;28;20203;-76
2023/08/27 03:00:53;;;;;;;7.03;5.87;;;;;;;21.33;70.17;96781.19;5054642;28;20247;-74
2023/08/27 03:03:20;;;;;;;8.30;6.33;;;;;;;21.40;70.48;96799.91;5072237;28;20185;-73
2023/08/27 03:05:48;;;;;;;11.73;6.87;;;;;;;21.36;70.45;96783.56;5071064;28;20276;-74
2023/08/27 03:08:16;;;;;;;8.47;6.43;;;;;;;21.46;70.49;96799.34;5072181;28;20186;-74
2023/08/27 03:10:44;;;;;;;7.57;6.23;;;;;;;21.20;71.66;96793.03;5088916;28;20308;-75
2023/08/27 03:13:11;;;;;;;7.23;6.00;;;;;;;21.24;71.33;96797.03;5090349;28;20728;-75
2023/08/27 03:15:39;;;;;;;7.83;6.60;;;;;;;21.35;70.53;96789.78;5071433;28;20269;-75
2023/08/27 03:18:06;;;;;;;8.20;6.80;;;;;;;21.28;70.48;96779.97;5089726;28;20201;-78
2023/08/27 03:20:33;;;;;;;9.40;6.67;;;;;;;21.24;69.78;96792.59;5055161;28;20205;-76
2023/08/27 03:23:02;;;;;;;7.00;6.30;;;;;;;21.23;70.04;96798.84;5088777;28;20277;-74
2023/08/27 03:25:29;;;;;;;11.10;6.07;;;;;;;21.30;69.72;96796.47;5071022;28;20277;-75
2023/08/27 03:27:56;;;;;;;8.40;6.20;;;;;;;21.41;69.18;96788.41;5088521;28;20186;-76
2023/08/27 03:30:23;;;;;;;10.00;6.83;;;;;;;21.52;68.84;96793.50;5071437;28;20232;-76
2023/08/27 03:32:51;;;;;;;9.17;7.13;;;;;;;21.57;68.57;96786.84;5070766;28;20198;-77
2023/08/27 03:35:19;;;;;;;9.87;6.57;;;;;;;21.58;68.55;96782.38;5089209;28;20194;-76
2023/08/27 03:37:46;;;;;;;8.50;6.30;;;;;;;21.60;68.17;96769.88;5071396;28;20553;-78
2023/08/27 03:40:15;;;;;;;7.80;6.33;;;;;;;21.87;68.11;96788.41;5070183;28;20247;-72
2023/08/27 03:42:42;;;;;;;7.40;6.27;;;;;;;22.07;66.88;96779.41;5089702;28;20650;-73
2023/08/27 03:45:10;;;;;;;7.20;6.50;;;;;;;22.32;66.35;96778.72;5053029;28;20200;-72
2023/08/27 03:47:37;;;;;;;7.77;5.90;;;;;;;22.57;65.02;96793.00;5055447;28;20195;-72
2023/08/27 03:50:05;;;;;;;10.20;6.87;;;;;;;22.34;65.32;96789.16;5089385;28;20239;-80
2023/08/27 03:52:34;;;;;;;8.07;6.30;;;;;;;22.11;66.16;96791.38;5070885;28;20195;-78
2023/08/27 03:55:03;;;;;;;8.20;6.47;;;;;;;22.28;65.64;96787.91;5089308;28;20188;-79
2023/08/27 03:57:31;;;;;;;12.13;6.33;;;;;;;21.92;66.76;96780.06;5070098;28;20267;-80
2023/08/27 04:00:00;;;;;;;9.77;6.27;;;;;;;22.41;65.83;96788.41;5071181;28;20274;-73
2023/08/27 04:02:32;;;;;;;8.43;6.67;;;;;;;22.60;64.53;96783.03;5070576;28;20188;-77
2023/08/27 04:05:03;;;;;;;8.57;6.70;;;;;;;22.76;64.06;96792.91;5089258;28;20254;-77
2023/08/27 04:07:30;;;;;;;10.27;6.80;;;;;;;23.00;63.19;96792.31;5053319;28;20283;-77
2023/08/27 04:09:58;;;;;;;7.47;6.40;;;;;;;23.35;61.89;96786.97;5069962;28;20239;-72
2023/08/27 04:12:26;;;;;;;12.83;7.27;;;;;;;23.62;61.21;96805.31;5070828;28;20617;-73
2023/08/27 04:14:53;;;;;;;7.97;5.90;;;;;;;23.82;59.86;96803.31;5087374;28;20209;-76
2023/08/27 04:17:20;;;;;;;6.30;5.70;;;;;;;23.68;59.91;96791.47;5053310;28;20624;-77
2023/08/27 04:19:47;;;;;;;7.30;5.80;;;;;;;23.93;59.59;96809.13;5069181;28;20882;-83
2023/08/27 04:22:15;;;;;;;7.30;6.27;;;;;;;24.09;58.65;96816.38;5088618;28;20268;-78
2023/08/27 04:24:43;;;;;;;7.30;5.90;;;;;;;24.06;59.15;96820.16;5069508;28;20230;-76
2023/08/27 04:27:10;;;;;;;7.27;6.53;;;;;;;23.96;59.35;96816.78;5088403;28;20237;-81
2023/08/27 04:29:38;;;;;;;9.43;6.20;;;;;;;23.58;61.04;96822.47;5070596;28;20202;-78
2023/08/27 04:32:07;;;;;;;16.03;6.53;;;;;;;23.86;60.03;96815.22;5069112;28;20667;-74
2023/08/27 04:34:35;;;;;;;9.10;6.30;;;;;;;24.07;60.29;96818.34;5070676;28;20233;-83
2023/08/27 04:37:03;;;;;;;8.67;6.27;;;;;;;24.27;59.51;96829.50;5069063;28;20188;-74
2023/08/27 04:39:30;;;;;;;7.10;6.03;;;;;;;24.65;57.52;96827.13;5070243;28;20224;-75
2023/08/27 04:41:58;;;;;;;7.43;5.77;;;;;;;24.62;56.18;96834.56;5069714;28;20186;-79
2023/08/27 04:44:26;;;;;;;7.00;5.80;;;;;;;24.71;55.74;96823.81;5088039;28;20203;-79
2023/08/27 04:46:54;;;;;;;9.53;5.87;;;;;;;24.54;56.44;96826.63;5070060;28;20192;-82
2023/08/27 04:49:24;;;;;;;7.57;5.97;;;;;;;24.82;56.65;96833.31;5068776;28;20212;-84
2023/08/27 04:51:51;;;;;;;7.30;5.53;;;;;;;24.92;56.87;96828.69;5053110;28;20568;-79
2023/08/27 04:54:19;;;;;;;8.63;5.63;;;;;;;25.29;55.65;96834.34;5068678;28;20188;-84
2023/08/27 04:56:46;;;;;;;7.83;6.47;;;;;;;25.35;55.25;96812.47;5087752;28;20196;-72
2023/08/27 04:59:13;;;;;;;7.93;6.63;;;;;;;24.95;56.21;96825.75;5080642;28;20193;-77
2023/08/27 05:01:41;;;;;;;10.10;6.07;;;;;;;24.68;56.17;96797.69;5058097;28;20233;-72
2023/08/27 05:04:08;;;;;;;8.33;6.37;;;;;;;24.93;56.10;96830.38;5033063;28;20199;-81
2023/08/27 05:06:37;;;;;;;9.03;6.40;;;;;;;25.03;56.76;96831.88;5048534;28;20192;-73
2023/08/27 05:09:04;;;;;;;10.90;6.40;;;;;;;24.84;57.40;96831.34;5033544;28;20616;-76
2023/08/27 05:11:31;;;;;;;9.07;6.20;;;;;;;24.70;57.54;96834.59;5048788;28;20325;-75
2023/08/27 05:13:58;;;;;;;10.63;6.73;;;;;;;25.05;56.31;96834.34;5049987;28;20685;-82
2023/08/27 05:16:25;;;;;;;8.20;5.87;;;;;;;24.49;57.17;96834.19;5062043;28;20272;-74
2023/08/27 05:18:53;;;;;;;9.10;6.10;;;;;;;24.68;56.77;96840.06;5059407;28;20251;-77
2023/08/27 05:21:23;;;;;;;7.77;6.10;;;;;;;24.78;56.85;96832.84;5053259;28;20198;-81
2023/08/27 05:23:52;;;;;;;8.97;6.70;;;;;;;25.41;55.55;96829.59;5063207;28;20189;-79
2023/08/27 05:26:21;;;;;;;8.53;6.13;;;;;;;25.29;54.85;96834.34;5066590;28;20193;-84
2023/08/27 05:28:49;;;;;;;9.43;6.00;;;;;;;25.46;54.75;96838.69;5065678;28;20185;-72
2023/08/27 05:31:17;;;;;;;8.00;5.70;;;;;;;25.74;53.36;96847.09;5065921;28;20227;-75
2023/08/27 05:33:45;;;;;;;9.50;5.90;;;;;;;26.06;51.72;96848.88;5065544;28;20193;-87
2023/08/27 05:36:13;;;;;;;6.93;5.80;;;;;;;26.19;51.88;96833.28;5070087;28;20219;-76
2023/08/27 05:38:43;;;;;;;13.73;6.40;;;;;;;26.64;50.41;96849.34;5070296;28;20652;-82
2023/08/27 05:41:11;;;;;;;7.53;5.17;;;;;;;26.76;49.70;96850.63;5069076;28;20647;-72
2023/08/27 05:43:40;;;;;;;9.50;5.00;;;;;;;26.86;49.39;96845.91;5073675;28;20192;-81
2023/08/27 05:46:07;;;;;;;6.30;5.13;;;;;;;26.61;49.10;96849.69;5084551;28;20261;-77
2023/08/27 05:48:37;;;;;;;7.67;5.00;;;;;;;26.78;49.64;96853.09;5060146;28;20204;-73
2023/08/27 05:51:05;;;;;;;7.47;4.80;;;;;;;26.50;49.13;96858.06;5086510;28;20220;-83
2023/08/27 05:53:32;;;;;;;9.57;5.67;;;;;;;26.68;48.96;96853.31;5069097;28;20207;-79
2023/08/27 05:56:00;;;;;;;6.57;5.47;;;;;;;26.28;49.57;96845.50;5069129;28;20196;-88
2023/08/27 05:58:27;;;;;;;6.37;5.30;;;;;;;26.26;49.81;96834.22;5068963;28;20694;-85
2023/08/27 06:00:56;;;;;;;6.60;5.03;;;;;;;26.26;48.99;96836.88;5088647;28;20188;-80
2023/08/27 06:03:23;;;;;;;5.93;5.10;;;;;;;26.23;49.23;96832.78;5072619;28;20733;-73
2023/08/27 06:05:51;;;;;;;8.63;5.17;;;;;;;26.10;49.44;96834.28;5055724;28;20192;-78
2023/08/27 06:08:18;;;;;;;6.27;5.57;;;;;;;26.18;49.53;96828.94;5068668;28;20276;-80
2023/08/27 06:10:46;;;;;;;6.30;5.23;;;;;;;26.61;49.17;96831.06;5069148;28;20303;-76
2023/08/27 06:13:13;;;;;;;7.37;5.13;;;;;;;26.54;48.76;96833.59;5087098;28;20748;-77
2023/08/27 06:15:41;;;;;;;7.17;5.23;;;;;;;26.16;49.55;96826.47;5067957;28;20257;-81
2023/08/27 06:18:09;;;;;;;7.93;5.10;;;;;;;26.55;48.91;96834.44;5069635;28;20191;-73
2023/08/27 06:20:38;;;;;;;6.37;5.20;;;;;;;26.60;48.68;96830.25;5068259;28;20187;-75
2023/08/27 06:23:06;;;;;;;6.27;5.23;;;;;;;26.57;49.28;96833.25;5068738;28;20180;-82
2023/08/27 06:25:36;;;;;;;9.37;5.70;;;;;;;26.84;48.14;96837.28;5067624;28;20199;-76
2023/08/27 06:28:06;;;;;;;8.10;5.90;;;;;;;27.13;47.73;96826.78;5068112;28;20594;-73
2023/08/27 06:30:33;;;;;;;8.20;5.00;;;;;;;27.47;47.82;96841.53;5068117;28;20652;-74
2023/08/27 06:33:04;;;;;;;7.27;5.53;;;;;;;27.54;46.54;96835.28;5050912;28;20195;-75
2023/08/27 06:35:31;;;;;;;9.87;5.80;;;;;;;27.73;46.87;96837.44;5069609;28;20197;-73
2023/08/27 06:37:58;;;;;;;7.00;5.90;;;;;;;27.93;46.07;96840.41;5067184;28;20711;-77
2023/08/27 06:40:26;;;;;;;8.43;6.00;;;;;;;28.17;46.17;96832.19;5070192;28;20263;-75
2023/08/27 06:42:56;;;;;;;6.90;6.20;;;;;;;28.07;44.84;96834.28;5071505;28;20206;-74
2023/08/27 06:45:26;;;;;;;6.30;5.67;;;;;;;27.94;45.01;96823.44;5071135;28;20188;-73
2023/08/27 06:47:55;;;;;;;7.90;5.77;;;;;;;28.03;45.13;96839.16;5071870;28;20201;-72
2023/08/27 06:50:24;;;;;;;7.43;5.20;;;;;;;28.30;44.27;96842.16;5069278;28;20232;-78
2023/08/27 06:52:52;;;;;;;9.47;5.47;;;;;;;28.50;43.99;96841.41;5054905;28;20227;-76
2023/08/27 06:55:19;;;;;;;6.87;5.63;;;;;;;28.66;44.32;96846.59;5068915;28;20279;-73
2023/08/27 06:57:47;;;;;;;5.53;5.03;;;;;;;28.38;43.95;96842.91;5068575;28;20235;-74
2023/08/27 07:00:15;;;;;;;6.70;4.87;;;;;;;28.13;44.67;96836.25;5069597;28;20216;-81
2023/08/27 07:02:43;;;;;;;5.27;4.77;;;;;;;28.02;44.63;96836.69;5071827;28;20189;-85
2023/08/27 07:05:53;;;;;;;7.23;5.70;;;;;;;28.31;44.01;96838.50;5071456;28;20352;-76
2023/08/27 07:09:13;;;;;;;5.23;4.73;;;;;;;28.28;43.62;96839.69;5088132;28;20193;-73
2023/08/27 07:11:54;;;;;;;9.43;4.77;;;;;;;28.64;43.33;96843.28;5087910;28;20306;-75
2023/08/27 07:14:22;;;;;;;9.87;4.90;;;;;;;28.99;42.66;96822.97;5072124;28;20188;-72
2023/08/27 07:16:50;;;;;;;6.63;4.70;;;;;;;28.88;43.61;96818.94;5070685;28;20199;-73
2023/08/27 07:19:17;;;;;;;6.20;4.70;;;;;;;29.18;42.16;96819.66;5071838;28;20189;-72
2023/08/27 07:21:47;;;;;;;7.97;4.50;;;;;;;29.36;41.88;96837.91;5053970;28;20295;-72
2023/08/27 07:24:16;;;;;;;5.80;4.77;;;;;;;29.29;40.73;96827.19;5071143;28;20245;-72
2023/08/27 07:26:46;;;;;;;10.27;5.23;;;;;;;29.36;41.28;96827.25;5055079;28;20184;-78
2023/08/27 07:29:13;;;;;;;4.97;4.47;;;;;;;29.28;41.07;96835.38;5070157;28;20246;-74
2023/08/27 07:31:41;;;;;;;6.00;4.77;;;;;;;29.28;40.78;96825.53;5089761;28;20216;-73
2023/08/27 07:34:08;;;;;;;9.30;5.30;;;;;;;29.23;41.57;96821.78;5088017;28;20197;-73
2023/08/27 07:36:36;;;;;;;6.30;4.50;;;;;;;28.91;40.70;96809.75;5088921;28;20275;-73
2023/08/27 07:39:04;;;;;;;7.47;4.30;;;;;;;28.88;41.11;96810.94;5037531;28;20206;-82
2023/08/27 07:41:33;;;;;;;6.43;4.80;;;;;;;28.92;41.16;96817.56;5054162;28;20581;-75
2023/08/27 07:44:01;;;;;;;7.33;3.87;;;;;;;28.91;40.04;96799.88;5071162;28;20283;-73
2023/08/27 07:46:29;;;;;;;8.63;4.63;;;;;;;29.19;39.75;96812.50;5053282;28;20196;-73
2023/08/27 07:48:56;;;;;;;4.93;4.10;;;;;;;29.45;39.40;96804.75;5054359;28;20249;-80
2023/08/27 07:51:24;;;;;;;7.73;4.57;;;;;;;29.37;39.19;96812.88;5069549;28;20227;-70
2023/08/27 07:53:53;;;;;;;5.53;3.27;;;;;;;29.21;39.56;96813.13;5090416;28;20204;-73
2023/08/27 07:56:21;;;;;;;11.57;5.57;;;;;;;29.17;39.92;96809.19;5070176;28;20270;-71
2023/08/27 07:58:48;;;;;;;5.60;4.53;;;;;;;29.46;39.38;96796.53;5070401;28;20188;-76
2023/08/27 08:01:15;;;;;;;5.77;4.23;;;;;;;29.54;39.99;96803.56;5070426;28;20194;-77
2023/08/27 08:03:44;;;;;;;7.00;4.00;;;;;;;29.43;39.90;96796.13;5052814;28;20201;-75
2023/08/27 08:06:12;;;;;;;5.03;4.43;;;;;;;29.58;38.80;96786.16;5089117;28;20196;-75
2023/08/27 08:08:40;;;;;;;5.33;3.80;;;;;;;29.19;39.75;96802.66;5053114;28;20268;-75
2023/08/27 08:11:07;;;;;;;4.20;3.73;;;;;;;29.01;39.95;96801.44;5088035;28;20216;-75
2023/08/27 08:13:36;;;;;;;5.53;4.33;;;;;;;29.05;40.87;96786.69;5088019;28;20188;-76
2023/08/27 08:16:04;;;;;;;4.87;3.70;;;;;;;29.12;39.72;96792.94;5069813;28;20298;-74
2023/08/27 08:18:31;;;;;;;5.03;4.30;;;;;;;29.13;39.81;96765.22;5088378;28;20696;-75
2023/08/27 08:20:59;;;;;;;7.53;4.53;;;;;;;29.10;41.20;96792.28;5087699;28;20246;-75
2023/08/27 08:23:27;;;;;;;4.77;3.87;;;;;;;28.45;41.86;96795.88;5088614;28;20285;-74
2023/08/27 08:25:57;;;;;;;6.20;4.37;;;;;;;28.80;41.67;96779.06;5036243;28;20288;-74
2023/08/27 08:29:05;;;;;;;4.80;4.30;;;;;;;29.20;40.79;96782.16;5088529;28;20787;-74
2023/08/27 08:31:46;;;;;;;5.27;4.27;;;;;;;29.23;40.13;96784.44;5069249;28;20231;-74
2023/08/27 08:34:14;;;;;;;6.33;4.73;;;;;;;29.40;39.87;96775.13;5087191;28;20193;-74
2023/08/27 08:36:41;;;;;;;5.80;3.97;;;;;;;29.83;39.57;96770.53;5088409;28;20690;-75
2023/08/27 08:39:09;;;;;;;6.67;4.20;;;;;;;29.95;38.59;96764.44;5068802;28;20240;-75
2023/08/27 08:41:40;;;;;;;5.50;3.90;;;;;;;30.08;38.68;96763.69;5088163;28;20215;-75
2023/08/27 08:44:29;;;;;;;6.27;4.47;;;;;;;29.87;39.87;96755.75;5069104;28;20188;-79
2023/08/27 08:46:56;;;;;;;8.07;5.13;;;;;;;30.24;38.67;96777.53;5084110;28;20234;-77
2023/08/27 08:49:26;;;;;;;4.97;4.23;;;;;;;30.40;38.70;96779.91;5088112;28;20675;-75
2023/08/27 08:51:59;;;;;;;5.40;3.60;;;;;;;30.27;37.62;96784.34;5086466;28;20248;-75
2023/08/27 08:54:28;;;;;;;7.17;5.23;;;;;;;30.33;38.02;96778.25;5069612;28;20205;-75
2023/08/27 08:57:00;;;;;;;4.67;3.90;;;;;;;30.24;37.25;96771.38;5068501;28;20689;-76
2023/08/27 08:59:29;;;;;;;4.70;4.00;;;;;;;29.60;38.78;96766.25;5087368;28;20189;-74
2023/08/27 09:01:58;;;;;;;5.63;3.87;;;;;;;29.65;38.49;96755.84;5087807;28;20257;-75
2023/08/27 09:04:26;;;;;;;6.80;4.13;;;;;;;29.43;38.75;96767.56;5086748;28;20184;-77
2023/08/27 09:06:54;;;;;;;6.00;4.10;;;;;;;29.33;38.11;96726.22;5069264;28;20283;-74
2023/08/27 09:09:23;;;;;;;6.40;3.87;;;;;;;29.32;37.97;96756.59;5086455;28;20303;-74
2023/08/27 09:11:51;;;;;;;5.80;4.40;;;;;;;29.53;38.03;96727.19;5069292;28;20231;-73
2023/08/27 09:14:21;;;;;;;5.87;4.10;;;;;;;29.91;36.22;96749.00;5087190;28;20570;-74
2023/08/27 09:16:48;;;;;;;5.80;4.27;;;;;;;29.92;36.40;96754.19;5036066;28;20840;-79
2023/08/27 09:19:16;;;;;;;6.93;4.03;;;;;;;29.96;36.31;96743.91;5087556;28;20188;-74
2023/08/27 09:21:44;;;;;;;4.60;3.90;;;;;;;30.13;35.82;96746.03;5085283;28;20207;-72
2023/08/27 09:24:13;;;;;;;4.60;3.70;;;;;;;29.93;35.10;96738.94;5075068;28;20688;-74
2023/08/27 09:26:40;;;;;;;5.90;3.70;;;;;;;30.30;35.77;96752.72;5076351;28;20218;-74
2023/08/27 09:29:08;;;;;;;7.17;4.10;;;;;;;30.05;35.24;96740.88;5085863;28;20192;-74
2023/08/27 09:31:37;;;;;;;8.17;4.47;;;;;;;30.31;35.22;96735.69;5076067;28;20285;-75
2023/08/27 09:34:05;;;;;;;4.57;3.40;;;;;;;30.06;35.93;96742.53;5088198;28;20704;-74
2023/08/27 09:36:35;;;;;;;6.80;4.07;;;;;;;29.99;35.90;96733.66;5107890;28;20180;-73
2023/08/27 09:39:08;;;;;;;5.73;3.90;;;;;;;30.21;36.32;96745.88;5071854;28;20199;-74
2023/08/27 09:41:40;;;;;;;4.00;3.53;;;;;;;30.12;36.94;96741.72;5108174;28;20749;-77
2023/08/27 09:44:08;;;;;;;5.57;4.10;;;;;;;30.22;37.40;96733.34;5106636;28;20199;-74
2023/08/27 09:46:37;;;;;;;4.73;3.60;;;;;;;30.26;36.76;96735.41;5107036;28;20717;-74
2023/08/27 09:49:06;;;;;;;5.27;3.93;;;;;;;30.47;37.37;96731.81;5088667;28;20196;-77
2023/08/27 09:51:37;;;;;;;4.83;3.87;;;;;;;30.82;36.81;96724.47;5107048;28;20212;-73
2023/08/27 09:54:15;;;;;;;7.20;3.90;;;;;;;30.91;35.83;96734.84;5107091;28;20241;-77
2023/08/27 09:56:46;;;;;;;5.83;4.10;;;;;;;30.57;36.67;96710.88;5088544;28;20183;-76
2023/08/27 09:59:17;;;;;;;5.17;4.00;;;;;;;30.81;36.16;96723.66;5107241;28;20237;-75
2023/08/27 10:01:49;;;;;;;5.78;3.90;;;;;;;31.13;36.18;96722.06;5106279;28;20176;-78
2023/08/27 10:04:17;;;;;;;5.07;3.83;;;;;;;31.18;36.31;96703.56;5088653;28;20779;-75
2023/08/27 10:06:46;;;;;;;4.88;4.10;;;;;;;31.44;36.77;96700.06;5107223;28;20184;-75
2023/08/27 10:09:14;;;;;;;7.43;3.90;;;;;;;31.36;36.60;96717.13;5106689;28;20242;-71
2023/08/27 10:11:45;;;;;;;6.32;4.07;;;;;;;30.98;36.84;96692.00;5109275;28;20718;-76
2023/08/27 10:14:18;;;;;;;5.70;3.73;;;;;;;30.87;36.98;96689.97;5089356;28;20222;-75
2023/08/27 10:16:46;;;;;;;5.53;4.47;;;;;;;31.11;36.19;96692.84;5088894;28;20199;-76
2023/08/27 10:19:14;;;;;;;5.57;4.03;;;;;;;31.36;36.09;96695.72;5107211;28;20587;-78
2023/08/27 10:21:42;;;;;;;6.13;4.23;;;;;;;31.16;36.04;96689.56;5090110;28;20199;-73
2023/08/27 10:24:10;;;;;;;5.43;3.83;;;;;;;31.30;36.19;96670.59;5109111;28;20196;-76
2023/08/27 10:26:38;;;;;;;7.00;4.10;;;;;;;31.68;35.47;96700.22;5106262;28;20196;-77
2023/08/27 10:29:06;;;;;;;5.25;3.67;;;;;;;31.50;36.29;96700.06;5107011;28;20687;-79
2023/08/27 10:31:34;;;;;;;6.75;3.70;;;;;;;31.47;36.28;96687.06;5105989;28;20220;-80
2023/08/27 10:34:03;;;;;;;7.97;4.45;;;;;;;31.66;35.58;96691.56;5090132;28;20191;-78
2023/08/27 10:36:38;;;;;;;5.28;3.90;;;;;;;31.83;34.96;96682.03;5092634;28;20207;-82
2023/08/27 10:39:08;;;;;;;6.72;4.13;;;;;;;31.82;34.91;96688.41;5110450;28;20192;-78
2023/08/27 10:41:36;;;;;;;4.97;3.90;;;;;;;31.74;35.01;96685.97;5110932;28;20781;-81
2023/08/27 10:44:05;;;;;;;4.50;3.90;;;;;;;31.43;35.92;96680.47;5109619;28;20192;-77
2023/08/27 10:46:33;;;;;;;7.20;4.40;;;;;;;31.96;35.03;96682.00;5092694;28;20240;-81
2023/08/27 10:49:15;;;;;;;5.72;4.20;;;;;;;31.50;35.91;96686.66;5089225;28;20200;-85
2023/08/27 10:51:42;;;;;;;6.10;4.03;;;;;;;31.16;36.65;96681.53;5062078;28;20277;-77
2023/08/27 10:54:24;;;;;;;5.80;4.07;;;;;;;31.35;35.75;96682.56;5089828;28;20263;-80
2023/08/27 10:56:53;;;;;;;5.72;3.60;;;;;;;31.06;35.87;96631.09;5089519;28;20246;-82
2023/08/27 10:59:28;;;;;;;4.32;3.42;;;;;;;31.15;35.78;96687.91;5090339;28;20239;-78
2023/08/27 11:02:09;;;;;;;8.60;3.70;;;;;;;31.44;35.01;96668.75;5070358;28;20693;-75
2023/08/27 11:04:42;;;;;;;6.30;4.25;;;;;;;31.69;34.12;96671.59;5071596;28;20280;-77
2023/08/27 11:07:22;;;;;;;6.20;3.85;;;;;;;31.87;34.18;96667.19;5089768;28;20297;-74
2023/08/27 11:09:55;;;;;;;4.35;3.53;;;;;;;31.97;35.02;96670.28;5070695;28;20193;-74
2023/08/27 11:12:27;;;;;;;4.72;4.10;;;;;;;31.87;33.88;96661.84;5090724;28;20220;-78
2023/08/27 11:15:10;;;;;;;5.85;3.83;;;;;;;32.11;33.61;96664.88;5089243;28;20256;-73
2023/08/27 11:17:38;;;;;;;4.97;3.90;;;;;;;31.80;33.35;96638.78;5078060;28;20204;-82
2023/08/27 11:20:25;;;;;;;7.88;4.18;;;;;;;31.97;33.05;96654.19;5072304;28;20233;-78
2023/08/27 11:23:07;;;;;;;7.55;3.80;;;;;;;32.13;33.00;96655.56;5069543;28;20247;-74
2023/08/27 11:25:37;;;;;;;7.43;3.90;;;;;;;32.12;33.33;96642.38;5052390;28;20182;-76
2023/08/27 11:28:09;;;;;;;6.22;3.38;;;;;;;32.39;32.39;96643.88;5051554;28;20190;-73
2023/08/27 11:30:38;;;;;;;5.35;3.78;;;;;;;32.17;32.32;96645.25;5070060;28;20204;-84
2023/08/27 11:33:15;;;;;;;5.43;3.80;;;;;;;31.97;32.88;96637.28;5068915;28;20608;-74
2023/08/27 11:35:43;;;;;;;5.00;3.40;;;;;;;32.31;32.37;96644.13;5049925;28;20193;-78
2023/08/27 11:38:10;;;;;;;4.43;3.65;;;;;;;32.20;32.17;96628.72;5069337;28;20280;-77
2023/08/27 11:40:37;;;;;;;5.47;3.53;;;;;;;32.49;32.09;96622.81;5067473;28;20278;-78
2023/08/27 11:43:04;;;;;;;5.70;4.03;;;;;;;32.29;32.39;96611.34;5068374;28;20269;-75
2023/08/27 11:45:34;;;;;;;9.32;4.45;;;;;;;32.65;32.45;96615.06;5067611;28;20196;-80